sensor_id;sensor_type;location;lat;lon;timestamp;P1;P2;P0
77892;PMS5003;67087;50.094;14.338;2023-04-12T00:00:58;4;3;
77892;PMS5003;67087;50.094;14.338;2023-04-12T00:03:24;5;4;
77892;PMS5003;67087;50.094;14.338;2023-04-12T00:05:49;3;3;
77892;PMS5003;67087;50.094;14.338;2023-04-12T00:08:14;1;1;
77892;PMS5003;67087;50.094;14.338;2023-04-12T00:10:39;3;3;
77892;PMS5003;67087;50.094;14.338;2023-04-12T00:13:04;3;3;
77892;PMS5003;67087;50.094;14.338;2023-04-12T00:15:29;2;2;
77892;PMS5003;67087;50.094;14.338;2023-04-12T00:17:55;3;3;
77892;PMS5003;67087;50.094;14.338;2023-04-12T00:20:19;2;2;
77892;PMS5003;67087;50.094;14.338;2023-04-12T00:22:45;3;2;
77892;PMS5003;67087;50.094;14.338;2023-04-12T00:25:10;2;2;
77892;PMS5003;67087;50.094;14.338;2023-04-12T00:27:35;3;2;
77892;PMS5003;67087;50.094;14.338;2023-04-12T00:30:00;2;2;
77892;PMS5003;67087;50.094;14.338;2023-04-12T00:32:25;4;3;
77892;PMS5003;67087;50.094;14.338;2023-04-12T00:34:50;2;1;
77892;PMS5003;67087;50.094;14.338;2023-04-12T00:37:15;1;1;
77892;PMS5003;67087;50.094;14.338;2023-04-12T00:39:41;2;2;
77892;PMS5003;67087;50.094;14.338;2023-04-12T00:42:06;2;1;
77892;PMS5003;67087;50.094;14.338;2023-04-12T00:44:31;1;1;
77892;PMS5003;67087;50.094;14.338;2023-04-12T00:46:56;4;3;
77892;PMS5003;67087;50.094;14.338;2023-04-12T00:49:21;2;2;
77892;PMS5003;67087;50.094;14.338;2023-04-12T00:51:46;4;4;
77892;PMS5003;67087;50.094;14.338;2023-04-12T00:54:11;3;3;
77892;PMS5003;67087;50.094;14.338;2023-04-12T00:56:37;4;3;
77892;PMS5003;67087;50.094;14.338;2023-04-12T00:59:02;1;1;
77892;PMS5003;67087;50.094;14.338;2023-04-12T01:01:27;2;2;
77892;PMS5003;67087;50.094;14.338;2023-04-12T01:03:52;2;2;
77892;PMS5003;67087;50.094;14.338;2023-04-12T01:06:20;2;2;
77892;PMS5003;67087;50.094;14.338;2023-04-12T01:08:47;1;1;
77892;PMS5003;67087;50.094;14.338;2023-04-12T01:11:09;2;2;
77892;PMS5003;67087;50.094;14.338;2023-04-12T01:13:33;2;2;
77892;PMS5003;67087;50.094;14.338;2023-04-12T01:15:59;2;2;
77892;PMS5003;67087;50.094;14.338;2023-04-12T01:18:24;1;1;
77892;PMS5003;67087;50.094;14.338;2023-04-12T01:20:50;3;2;
77892;PMS5003;67087;50.094;14.338;2023-04-12T01:23:14;4;3;
77892;PMS5003;67087;50.094;14.338;2023-04-12T01:25:43;2;2;
77892;PMS5003;67087;50.094;14.338;2023-04-12T01:28:04;1;1;
77892;PMS5003;67087;50.094;14.338;2023-04-12T01:30:29;1;1;
77892;PMS5003;67087;50.094;14.338;2023-04-12T01:32:54;1;1;
77892;PMS5003;67087;50.094;14.338;2023-04-12T01:35:19;3;3;
77892;PMS5003;67087;50.094;14.338;2023-04-12T01:37:44;1;1;
77892;PMS5003;67087;50.094;14.338;2023-04-12T01:40:10;2;2;
77892;PMS5003;67087;50.094;14.338;2023-04-12T01:42:34;1;1;
77892;PMS5003;67087;50.094;14.338;2023-04-12T01:45:00;2;2;
77892;PMS5003;67087;50.094;14.338;2023-04-12T01:47:25;1;1;
77892;PMS5003;67087;50.094;14.338;2023-04-12T01:49:53;2;2;
77892;PMS5003;67087;50.094;14.338;2023-04-12T01:52:17;2;1;
77892;PMS5003;67087;50.094;14.338;2023-04-12T01:54:40;2;2;
77892;PMS5003;67087;50.094;14.338;2023-04-12T01:57:05;3;2;
77892;PMS5003;67087;50.094;14.338;2023-04-12T01:59:31;2;2;
77892;PMS5003;67087;50.094;14.338;2023-04-12T02:01:56;1;1;
77892;PMS5003;67087;50.094;14.338;2023-04-12T02:04:21;3;3;
77892;PMS5003;67087;50.094;14.338;2023-04-12T02:06:46;2;2;
77892;PMS5003;67087;50.094;14.338;2023-04-12T02:09:11;1;1;
77892;PMS5003;67087;50.094;14.338;2023-04-12T02:11:36;0;0;
77892;PMS5003;67087;50.094;14.338;2023-04-12T02:14:01;1;1;
77892;PMS5003;67087;50.094;14.338;2023-04-12T02:16:26;2;2;
77892;PMS5003;67087;50.094;14.338;2023-04-12T02:18:52;0;0;
77892;PMS5003;67087;50.094;14.338;2023-04-12T02:21:17;1;1;
77892;PMS5003;67087;50.094;14.338;2023-04-12T02:23:42;1;1;
77892;PMS5003;67087;50.094;14.338;2023-04-12T02:26:07;2;2;
77892;PMS5003;67087;50.094;14.338;2023-04-12T02:28:32;2;2;
77892;PMS5003;67087;50.094;14.338;2023-04-12T02:30:57;1;1;
77892;PMS5003;67087;50.094;14.338;2023-04-12T02:33:22;3;2;
77892;PMS5003;67087;50.094;14.338;2023-04-12T02:35:48;1;1;
77892;PMS5003;67087;50.094;14.338;2023-04-12T02:38:13;2;2;
77892;PMS5003;67087;50.094;14.338;2023-04-12T02:40:38;2;1;
77892;PMS5003;67087;50.094;14.338;2023-04-12T02:43:03;1;1;
77892;PMS5003;67087;50.094;14.338;2023-04-12T02:45:28;1;1;
77892;PMS5003;67087;50.094;14.338;2023-04-12T02:47:53;2;2;
77892;PMS5003;67087;50.094;14.338;2023-04-12T02:50:19;1;1;
77892;PMS5003;67087;50.094;14.338;2023-04-12T02:52:44;1;0;
77892;PMS5003;67087;50.094;14.338;2023-04-12T02:55:09;0;0;
77892;PMS5003;67087;50.094;14.338;2023-04-12T02:57:34;1;1;
77892;PMS5003;67087;50.094;14.338;2023-04-12T02:59:59;1;1;
77892;PMS5003;67087;50.094;14.338;2023-04-12T03:02:25;2;2;
77892;PMS5003;67087;50.094;14.338;2023-04-12T03:04:49;2;2;
77892;PMS5003;67087;50.094;14.338;2023-04-12T03:07:15;0;0;
77892;PMS5003;67087;50.094;14.338;2023-04-12T03:09:40;1;1;
77892;PMS5003;67087;50.094;14.338;2023-04-12T03:12:05;2;2;
77892;PMS5003;67087;50.094;14.338;2023-04-12T03:14:30;2;2;
77892;PMS5003;67087;50.094;14.338;2023-04-12T03:16:55;2;1;
77892;PMS5003;67087;50.094;14.338;2023-04-12T03:19:20;3;3;
77892;PMS5003;67087;50.094;14.338;2023-04-12T03:21:45;0;0;
77892;PMS5003;67087;50.094;14.338;2023-04-12T03:24:11;2;1;
77892;PMS5003;67087;50.094;14.338;2023-04-12T03:26:36;1;1;
77892;PMS5003;67087;50.094;14.338;2023-04-12T03:29:02;1;1;
77892;PMS5003;67087;50.094;14.338;2023-04-12T03:31:26;3;2;
77892;PMS5003;67087;50.094;14.338;2023-04-12T03:33:51;2;2;
77892;PMS5003;67087;50.094;14.338;2023-04-12T03:36:17;2;2;
77892;PMS5003;67087;50.094;14.338;2023-04-12T03:38:41;1;1;
77892;PMS5003;67087;50.094;14.338;2023-04-12T03:41:07;2;2;
77892;PMS5003;67087;50.094;14.338;2023-04-12T03:43:32;1;1;
77892;PMS5003;67087;50.094;14.338;2023-04-12T03:45:57;2;2;
77892;PMS5003;67087;50.094;14.338;2023-04-12T03:48:22;1;1;
77892;PMS5003;67087;50.094;14.338;2023-04-12T03:50:47;1;1;
77892;PMS5003;67087;50.094;14.338;2023-04-12T03:53:12;2;2;
77892;PMS5003;67087;50.094;14.338;2023-04-12T03:55:38;2;2;
77892;PMS5003;67087;50.094;14.338;2023-04-12T03:58:03;0;0;
77892;PMS5003;67087;50.094;14.338;2023-04-12T04:00:29;2;2;
77892;PMS5003;67087;50.094;14.338;2023-04-12T04:02:53;1;1;
77892;PMS5003;67087;50.094;14.338;2023-04-12T04:05:18;2;2;
77892;PMS5003;67087;50.094;14.338;2023-04-12T04:07:43;0;0;
77892;PMS5003;67087;50.094;14.338;2023-04-12T04:10:09;2;2;
77892;PMS5003;67087;50.094;14.338;2023-04-12T04:12:34;1;1;
77892;PMS5003;67087;50.094;14.338;2023-04-12T04:14:59;1;1;
77892;PMS5003;67087;50.094;14.338;2023-04-12T04:17:24;1;1;
77892;PMS5003;67087;50.094;14.338;2023-04-12T04:19:49;1;1;
77892;PMS5003;67087;50.094;14.338;2023-04-12T04:22:14;2;2;
77892;PMS5003;67087;50.094;14.338;2023-04-12T04:24:39;1;1;
77892;PMS5003;67087;50.094;14.338;2023-04-12T04:27:05;2;2;
77892;PMS5003;67087;50.094;14.338;2023-04-12T04:29:30;2;2;
77892;PMS5003;67087;50.094;14.338;2023-04-12T04:31:55;2;2;
77892;PMS5003;67087;50.094;14.338;2023-04-12T04:34:20;2;2;
77892;PMS5003;67087;50.094;14.338;2023-04-12T04:36:45;2;2;
77892;PMS5003;67087;50.094;14.338;2023-04-12T04:39:10;2;2;
77892;PMS5003;67087;50.094;14.338;2023-04-12T04:41:35;1;1;
77892;PMS5003;67087;50.094;14.338;2023-04-12T04:44:01;3;3;
77892;PMS5003;67087;50.094;14.338;2023-04-12T04:46:26;2;2;
77892;PMS5003;67087;50.094;14.338;2023-04-12T04:48:51;2;2;
77892;PMS5003;67087;50.094;14.338;2023-04-12T04:51:16;3;3;
77892;PMS5003;67087;50.094;14.338;2023-04-12T04:53:41;3;3;
77892;PMS5003;67087;50.094;14.338;2023-04-12T04:56:07;3;3;
77892;PMS5003;67087;50.094;14.338;2023-04-12T04:58:31;2;2;
77892;PMS5003;67087;50.094;14.338;2023-04-12T05:00:57;3;3;
77892;PMS5003;67087;50.094;14.338;2023-04-12T05:03:22;6;6;
77892;PMS5003;67087;50.094;14.338;2023-04-12T05:05:48;3;2;
77892;PMS5003;67087;50.094;14.338;2023-04-12T05:08:13;3;3;
77892;PMS5003;67087;50.094;14.338;2023-04-12T05:10:38;4;4;
77892;PMS5003;67087;50.094;14.338;2023-04-12T05:13:03;2;2;
77892;PMS5003;67087;50.094;14.338;2023-04-12T05:15:29;2;2;
77892;PMS5003;67087;50.094;14.338;2023-04-12T05:17:53;3;3;
77892;PMS5003;67087;50.094;14.338;2023-04-12T05:20:18;3;3;
77892;PMS5003;67087;50.094;14.338;2023-04-12T05:22:43;3;3;
77892;PMS5003;67087;50.094;14.338;2023-04-12T05:25:09;5;3;
77892;PMS5003;67087;50.094;14.338;2023-04-12T05:27:34;13;13;
77892;PMS5003;67087;50.094;14.338;2023-04-12T05:29:59;13;13;
77892;PMS5003;67087;50.094;14.338;2023-04-12T05:32:24;11;11;
77892;PMS5003;67087;50.094;14.338;2023-04-12T05:34:49;9;9;
77892;PMS5003;67087;50.094;14.338;2023-04-12T05:37:15;11;10;
77892;PMS5003;67087;50.094;14.338;2023-04-12T05:39:40;9;8;
77892;PMS5003;67087;50.094;14.338;2023-04-12T05:42:05;8;8;
77892;PMS5003;67087;50.094;14.338;2023-04-12T05:44:30;8;7;
77892;PMS5003;67087;50.094;14.338;2023-04-12T05:46:55;13;13;
77892;PMS5003;67087;50.094;14.338;2023-04-12T05:49:21;9;9;
77892;PMS5003;67087;50.094;14.338;2023-04-12T05:51:46;10;9;
77892;PMS5003;67087;50.094;14.338;2023-04-12T05:54:11;9;9;
77892;PMS5003;67087;50.094;14.338;2023-04-12T05:56:36;8;8;
77892;PMS5003;67087;50.094;14.338;2023-04-12T05:59:02;9;8;
77892;PMS5003;67087;50.094;14.338;2023-04-12T06:01:27;13;11;
77892;PMS5003;67087;50.094;14.338;2023-04-12T06:03:52;10;10;
77892;PMS5003;67087;50.094;14.338;2023-04-12T06:06:17;12;10;
77892;PMS5003;67087;50.094;14.338;2023-04-12T06:08:43;11;11;
77892;PMS5003;67087;50.094;14.338;2023-04-12T06:11:08;11;11;
77892;PMS5003;67087;50.094;14.338;2023-04-12T06:13:33;10;9;
77892;PMS5003;67087;50.094;14.338;2023-04-12T06:15:59;9;9;
77892;PMS5003;67087;50.094;14.338;2023-04-12T06:18:25;10;10;
77892;PMS5003;67087;50.094;14.338;2023-04-12T06:20:50;10;10;
77892;PMS5003;67087;50.094;14.338;2023-04-12T06:23:15;10;9;
77892;PMS5003;67087;50.094;14.338;2023-04-12T06:25:41;8;8;
77892;PMS5003;67087;50.094;14.338;2023-04-12T06:28:06;7;6;
77892;PMS5003;67087;50.094;14.338;2023-04-12T06:30:31;8;7;
77892;PMS5003;67087;50.094;14.338;2023-04-12T06:32:56;9;8;
77892;PMS5003;67087;50.094;14.338;2023-04-12T06:35:22;9;9;
77892;PMS5003;67087;50.094;14.338;2023-04-12T06:37:47;10;9;
77892;PMS5003;67087;50.094;14.338;2023-04-12T06:40:12;11;9;
77892;PMS5003;67087;50.094;14.338;2023-04-12T06:42:37;8;8;
77892;PMS5003;67087;50.094;14.338;2023-04-12T06:45:03;9;9;
77892;PMS5003;67087;50.094;14.338;2023-04-12T06:47:28;7;7;
77892;PMS5003;67087;50.094;14.338;2023-04-12T06:49:53;7;6;
77892;PMS5003;67087;50.094;14.338;2023-04-12T06:52:18;8;7;
77892;PMS5003;67087;50.094;14.338;2023-04-12T06:54:43;9;7;
77892;PMS5003;67087;50.094;14.338;2023-04-12T06:57:09;6;5;
77892;PMS5003;67087;50.094;14.338;2023-04-12T06:59:34;6;6;
77892;PMS5003;67087;50.094;14.338;2023-04-12T07:01:59;7;7;
77892;PMS5003;67087;50.094;14.338;2023-04-12T07:04:25;7;7;
77892;PMS5003;67087;50.094;14.338;2023-04-12T07:06:50;6;5;
77892;PMS5003;67087;50.094;14.338;2023-04-12T07:09:15;6;6;
77892;PMS5003;67087;50.094;14.338;2023-04-12T07:11:41;5;5;
77892;PMS5003;67087;50.094;14.338;2023-04-12T07:14:06;7;6;
77892;PMS5003;67087;50.094;14.338;2023-04-12T07:16:32;9;8;
77892;PMS5003;67087;50.094;14.338;2023-04-12T07:18:57;6;6;
77892;PMS5003;67087;50.094;14.338;2023-04-12T07:21:22;6;6;
77892;PMS5003;67087;50.094;14.338;2023-04-12T07:23:48;7;7;
77892;PMS5003;67087;50.094;14.338;2023-04-12T07:26:14;6;6;
77892;PMS5003;67087;50.094;14.338;2023-04-12T07:28:39;7;6;
77892;PMS5003;67087;50.094;14.338;2023-04-12T07:31:04;4;4;
77892;PMS5003;67087;50.094;14.338;2023-04-12T07:33:30;11;9;
77892;PMS5003;67087;50.094;14.338;2023-04-12T07:35:55;6;6;
77892;PMS5003;67087;50.094;14.338;2023-04-12T07:38:20;6;6;
77892;PMS5003;67087;50.094;14.338;2023-04-12T07:40:45;5;5;
77892;PMS5003;67087;50.094;14.338;2023-04-12T07:43:11;6;6;
77892;PMS5003;67087;50.094;14.338;2023-04-12T07:45:36;4;4;
77892;PMS5003;67087;50.094;14.338;2023-04-12T08:09:48;4;4;
77892;PMS5003;67087;50.094;14.338;2023-04-12T08:12:19;5;5;
77892;PMS5003;67087;50.094;14.338;2023-04-12T08:14:38;3;3;
77892;PMS5003;67087;50.094;14.338;2023-04-12T08:17:03;4;4;
77892;PMS5003;67087;50.094;14.338;2023-04-12T08:19:28;4;4;
77892;PMS5003;67087;50.094;14.338;2023-04-12T08:21:53;4;3;
77892;PMS5003;67087;50.094;14.338;2023-04-12T08:24:19;4;4;
77892;PMS5003;67087;50.094;14.338;2023-04-12T08:26:44;3;3;
77892;PMS5003;67087;50.094;14.338;2023-04-12T08:29:09;2;2;
77892;PMS5003;67087;50.094;14.338;2023-04-12T08:31:34;3;2;
77892;PMS5003;67087;50.094;14.338;2023-04-12T08:33:59;4;4;
77892;PMS5003;67087;50.094;14.338;2023-04-12T08:36:25;4;4;
77892;PMS5003;67087;50.094;14.338;2023-04-12T08:38:50;4;4;
77892;PMS5003;67087;50.094;14.338;2023-04-12T08:41:15;3;3;
77892;PMS5003;67087;50.094;14.338;2023-04-12T08:43:41;3;3;
77892;PMS5003;67087;50.094;14.338;2023-04-12T08:46:05;5;5;
77892;PMS5003;67087;50.094;14.338;2023-04-12T08:48:30;3;3;
77892;PMS5003;67087;50.094;14.338;2023-04-12T08:50:56;4;3;
77892;PMS5003;67087;50.094;14.338;2023-04-12T08:53:21;4;3;
77892;PMS5003;67087;50.094;14.338;2023-04-12T08:55:46;4;4;
77892;PMS5003;67087;50.094;14.338;2023-04-12T08:58:12;4;3;
77892;PMS5003;67087;50.094;14.338;2023-04-12T09:00:36;4;4;
77892;PMS5003;67087;50.094;14.338;2023-04-12T09:03:01;4;4;
77892;PMS5003;67087;50.094;14.338;2023-04-12T09:05:27;5;5;
77892;PMS5003;67087;50.094;14.338;2023-04-12T09:07:52;5;5;
77892;PMS5003;67087;50.094;14.338;2023-04-12T09:12:45;2;2;
77892;PMS5003;67087;50.094;14.338;2023-04-12T09:15:08;4;3;
77892;PMS5003;67087;50.094;14.338;2023-04-12T09:17:32;5;5;
77892;PMS5003;67087;50.094;14.338;2023-04-12T09:19:58;3;3;
77892;PMS5003;67087;50.094;14.338;2023-04-12T09:22:31;4;4;
77892;PMS5003;67087;50.094;14.338;2023-04-12T09:24:49;2;2;
77892;PMS5003;67087;50.094;14.338;2023-04-12T09:27:13;3;3;
77892;PMS5003;67087;50.094;14.338;2023-04-12T09:29:38;3;3;
77892;PMS5003;67087;50.094;14.338;2023-04-12T09:32:04;3;3;
77892;PMS5003;67087;50.094;14.338;2023-04-12T09:34:29;3;3;
77892;PMS5003;67087;50.094;14.338;2023-04-12T09:36:54;3;3;
77892;PMS5003;67087;50.094;14.338;2023-04-12T09:39:19;3;3;
77892;PMS5003;67087;50.094;14.338;2023-04-12T09:41:44;3;3;
77892;PMS5003;67087;50.094;14.338;2023-04-12T09:44:09;4;3;
77892;PMS5003;67087;50.094;14.338;2023-04-12T09:46:35;3;3;
77892;PMS5003;67087;50.094;14.338;2023-04-12T09:49:00;4;4;
77892;PMS5003;67087;50.094;14.338;2023-04-12T09:51:25;3;3;
77892;PMS5003;67087;50.094;14.338;2023-04-12T09:53:50;3;3;
77892;PMS5003;67087;50.094;14.338;2023-04-12T09:56:15;3;3;
77892;PMS5003;67087;50.094;14.338;2023-04-12T09:58:40;4;4;
77892;PMS5003;67087;50.094;14.338;2023-04-12T10:01:05;6;2;
77892;PMS5003;67087;50.094;14.338;2023-04-12T10:03:31;4;4;
77892;PMS5003;67087;50.094;14.338;2023-04-12T10:05:56;4;4;
77892;PMS5003;67087;50.094;14.338;2023-04-12T10:08:21;3;3;
77892;PMS5003;67087;50.094;14.338;2023-04-12T10:10:46;3;3;
77892;PMS5003;67087;50.094;14.338;2023-04-12T10:13:11;4;4;
77892;PMS5003;67087;50.094;14.338;2023-04-12T10:15:36;2;2;
77892;PMS5003;67087;50.094;14.338;2023-04-12T10:18:02;5;5;
77892;PMS5003;67087;50.094;14.338;2023-04-12T10:20:27;7;6;
77892;PMS5003;67087;50.094;14.338;2023-04-12T10:22:52;8;8;
77892;PMS5003;67087;50.094;14.338;2023-04-12T10:25:17;7;7;
77892;PMS5003;67087;50.094;14.338;2023-04-12T10:27:43;9;9;
77892;PMS5003;67087;50.094;14.338;2023-04-12T10:32:33;8;8;
77892;PMS5003;67087;50.094;14.338;2023-04-12T10:34:58;9;8;
77892;PMS5003;67087;50.094;14.338;2023-04-12T10:39:52;7;6;
77892;PMS5003;67087;50.094;14.338;2023-04-12T10:42:15;10;9;
77892;PMS5003;67087;50.094;14.338;2023-04-12T10:44:39;6;6;
77892;PMS5003;67087;50.094;14.338;2023-04-12T10:47:04;6;6;
77892;PMS5003;67087;50.094;14.338;2023-04-12T10:49:30;6;5;
77892;PMS5003;67087;50.094;14.338;2023-04-12T10:54:29;5;5;
77892;PMS5003;67087;50.094;14.338;2023-04-12T10:56:46;4;4;
77892;PMS5003;67087;50.094;14.338;2023-04-12T10:59:11;2;2;
77892;PMS5003;67087;50.094;14.338;2023-04-12T11:01:36;4;4;
77892;PMS5003;67087;50.094;14.338;2023-04-12T11:04:05;4;4;
77892;PMS5003;67087;50.094;14.338;2023-04-12T11:08:53;3;2;
77892;PMS5003;67087;50.094;14.338;2023-04-12T11:11:17;3;3;
77892;PMS5003;67087;50.094;14.338;2023-04-12T11:13:42;2;2;
77892;PMS5003;67087;50.094;14.338;2023-04-12T11:16:07;2;2;
77892;PMS5003;67087;50.094;14.338;2023-04-12T11:18:32;2;2;
77892;PMS5003;67087;50.094;14.338;2023-04-12T11:20:57;3;2;
77892;PMS5003;67087;50.094;14.338;2023-04-12T11:23:22;2;2;
77892;PMS5003;67087;50.094;14.338;2023-04-12T11:25:48;0;0;
77892;PMS5003;67087;50.094;14.338;2023-04-12T11:28:15;3;3;
77892;PMS5003;67087;50.094;14.338;2023-04-12T11:33:03;2;2;
77892;PMS5003;67087;50.094;14.338;2023-04-12T11:35:28;3;3;
77892;PMS5003;67087;50.094;14.338;2023-04-12T11:37:53;4;3;
77892;PMS5003;67087;50.094;14.338;2023-04-12T11:40:20;1;1;
77892;PMS5003;67087;50.094;14.338;2023-04-12T11:42:43;3;2;
77892;PMS5003;67087;50.094;14.338;2023-04-12T11:45:09;3;3;
77892;PMS5003;67087;50.094;14.338;2023-04-12T11:47:34;5;4;
77892;PMS5003;67087;50.094;14.338;2023-04-12T11:49:59;3;3;
77892;PMS5003;67087;50.094;14.338;2023-04-12T11:52:26;3;3;
77892;PMS5003;67087;50.094;14.338;2023-04-12T11:54:49;0;0;
77892;PMS5003;67087;50.094;14.338;2023-04-12T11:57:15;3;3;
77892;PMS5003;67087;50.094;14.338;2023-04-12T11:59:41;3;3;
77892;PMS5003;67087;50.094;14.338;2023-04-12T12:02:06;3;3;
77892;PMS5003;67087;50.094;14.338;2023-04-12T12:04:30;3;3;
77892;PMS5003;67087;50.094;14.338;2023-04-12T12:06:55;4;4;
77892;PMS5003;67087;50.094;14.338;2023-04-12T12:09:20;2;2;
77892;PMS5003;67087;50.094;14.338;2023-04-12T12:11:45;3;2;
77892;PMS5003;67087;50.094;14.338;2023-04-12T12:14:10;3;3;
77892;PMS5003;67087;50.094;14.338;2023-04-12T12:16:36;5;4;
77892;PMS5003;67087;50.094;14.338;2023-04-12T12:19:02;4;4;
77892;PMS5003;67087;50.094;14.338;2023-04-12T12:21:26;4;4;
77892;PMS5003;67087;50.094;14.338;2023-04-12T12:23:51;4;3;
77892;PMS5003;67087;50.094;14.338;2023-04-12T12:26:18;2;2;
77892;PMS5003;67087;50.094;14.338;2023-04-12T12:28:41;3;2;
77892;PMS5003;67087;50.094;14.338;2023-04-12T12:31:07;4;4;
77892;PMS5003;67087;50.094;14.338;2023-04-12T12:33:35;4;3;
77892;PMS5003;67087;50.094;14.338;2023-04-12T12:35:56;3;3;
77892;PMS5003;67087;50.094;14.338;2023-04-12T12:38:22;2;2;
77892;PMS5003;67087;50.094;14.338;2023-04-12T12:40:47;4;4;
77892;PMS5003;67087;50.094;14.338;2023-04-12T12:43:15;4;3;
77892;PMS5003;67087;50.094;14.338;2023-04-12T12:45:37;6;5;
77892;PMS5003;67087;50.094;14.338;2023-04-12T12:48:03;4;3;
77892;PMS5003;67087;50.094;14.338;2023-04-12T12:50:28;3;3;
77892;PMS5003;67087;50.094;14.338;2023-04-12T12:52:53;3;3;
77892;PMS5003;67087;50.094;14.338;2023-04-12T12:55:18;5;4;
77892;PMS5003;67087;50.094;14.338;2023-04-12T12:57:43;3;3;
77892;PMS5003;67087;50.094;14.338;2023-04-12T13:00:08;3;3;
77892;PMS5003;67087;50.094;14.338;2023-04-12T13:02:33;4;4;
77892;PMS5003;67087;50.094;14.338;2023-04-12T13:04:58;5;4;
77892;PMS5003;67087;50.094;14.338;2023-04-12T13:07:23;3;3;
77892;PMS5003;67087;50.094;14.338;2023-04-12T13:09:48;4;4;
77892;PMS5003;67087;50.094;14.338;2023-04-12T13:12:13;3;3;
77892;PMS5003;67087;50.094;14.338;2023-04-12T13:14:38;3;3;
77892;PMS5003;67087;50.094;14.338;2023-04-12T13:17:04;2;1;
77892;PMS5003;67087;50.094;14.338;2023-04-12T13:19:29;4;4;
77892;PMS5003;67087;50.094;14.338;2023-04-12T13:21:54;9;7;
77892;PMS5003;67087;50.094;14.338;2023-04-12T13:24:19;4;4;
77892;PMS5003;67087;50.094;14.338;2023-04-12T13:26:44;3;3;
77892;PMS5003;67087;50.094;14.338;2023-04-12T13:29:10;3;3;
77892;PMS5003;67087;50.094;14.338;2023-04-12T13:31:35;5;3;
77892;PMS5003;67087;50.094;14.338;2023-04-12T13:34:00;5;4;
77892;PMS5003;67087;50.094;14.338;2023-04-12T13:36:25;5;4;
77892;PMS5003;67087;50.094;14.338;2023-04-12T13:38:50;4;3;
77892;PMS5003;67087;50.094;14.338;2023-04-12T13:41:15;3;3;
77892;PMS5003;67087;50.094;14.338;2023-04-12T13:43:41;3;2;
77892;PMS5003;67087;50.094;14.338;2023-04-12T13:46:06;2;2;
77892;PMS5003;67087;50.094;14.338;2023-04-12T13:48:31;5;4;
77892;PMS5003;67087;50.094;14.338;2023-04-12T13:50:57;3;3;
77892;PMS5003;67087;50.094;14.338;2023-04-12T13:53:22;3;3;
77892;PMS5003;67087;50.094;14.338;2023-04-12T13:55:47;3;3;
77892;PMS5003;67087;50.094;14.338;2023-04-12T13:58:12;5;5;
77892;PMS5003;67087;50.094;14.338;2023-04-12T14:00:38;3;2;
77892;PMS5003;67087;50.094;14.338;2023-04-12T14:03:03;2;2;
77892;PMS5003;67087;50.094;14.338;2023-04-12T14:05:28;3;2;
77892;PMS5003;67087;50.094;14.338;2023-04-12T14:07:53;2;2;
77892;PMS5003;67087;50.094;14.338;2023-04-12T14:10:18;2;2;
77892;PMS5003;67087;50.094;14.338;2023-04-12T14:12:43;3;3;
77892;PMS5003;67087;50.094;14.338;2023-04-12T14:15:08;2;2;
77892;PMS5003;67087;50.094;14.338;2023-04-12T14:17:34;2;2;
77892;PMS5003;67087;50.094;14.338;2023-04-12T14:19:59;3;3;
77892;PMS5003;67087;50.094;14.338;2023-04-12T14:22:24;5;5;
77892;PMS5003;67087;50.094;14.338;2023-04-12T14:24:49;4;4;
77892;PMS5003;67087;50.094;14.338;2023-04-12T14:27:14;5;5;
77892;PMS5003;67087;50.094;14.338;2023-04-12T14:29:39;5;5;
77892;PMS5003;67087;50.094;14.338;2023-04-12T14:32:04;5;5;
77892;PMS5003;67087;50.094;14.338;2023-04-12T14:34:30;4;4;
77892;PMS5003;67087;50.094;14.338;2023-04-12T14:36:55;4;4;
77892;PMS5003;67087;50.094;14.338;2023-04-12T14:39:20;3;3;
77892;PMS5003;67087;50.094;14.338;2023-04-12T14:41:45;2;2;
77892;PMS5003;67087;50.094;14.338;2023-04-12T14:44:10;5;5;
77892;PMS5003;67087;50.094;14.338;2023-04-12T14:46:36;4;4;
77892;PMS5003;67087;50.094;14.338;2023-04-12T14:49:01;4;4;
77892;PMS5003;67087;50.094;14.338;2023-04-12T14:51:27;3;3;
77892;PMS5003;67087;50.094;14.338;2023-04-12T14:53:51;3;3;
77892;PMS5003;67087;50.094;14.338;2023-04-12T14:56:18;2;2;
77892;PMS5003;67087;50.094;14.338;2023-04-12T14:58:41;3;3;
77892;PMS5003;67087;50.094;14.338;2023-04-12T15:01:09;3;3;
77892;PMS5003;67087;50.094;14.338;2023-04-12T15:03:32;3;2;
77892;PMS5003;67087;50.094;14.338;2023-04-12T15:05:57;2;2;
77892;PMS5003;67087;50.094;14.338;2023-04-12T15:08:22;4;3;
77892;PMS5003;67087;50.094;14.338;2023-04-12T15:10:47;4;3;
77892;PMS5003;67087;50.094;14.338;2023-04-12T15:13:12;3;3;
77892;PMS5003;67087;50.094;14.338;2023-04-12T15:15:38;4;4;
77892;PMS5003;67087;50.094;14.338;2023-04-12T15:18:03;3;3;
77892;PMS5003;67087;50.094;14.338;2023-04-12T15:20:28;4;4;
77892;PMS5003;67087;50.094;14.338;2023-04-12T15:22:53;5;4;
77892;PMS5003;67087;50.094;14.338;2023-04-12T15:25:18;5;5;
77892;PMS5003;67087;50.094;14.338;2023-04-12T15:27:43;5;4;
77892;PMS5003;67087;50.094;14.338;2023-04-12T15:30:09;3;3;
77892;PMS5003;67087;50.094;14.338;2023-04-12T15:32:33;4;4;
77892;PMS5003;67087;50.094;14.338;2023-04-12T15:34:59;6;6;
77892;PMS5003;67087;50.094;14.338;2023-04-12T15:37:24;8;6;
77892;PMS5003;67087;50.094;14.338;2023-04-12T15:39:49;8;8;
77892;PMS5003;67087;50.094;14.338;2023-04-12T15:42:14;9;8;
77892;PMS5003;67087;50.094;14.338;2023-04-12T15:44:39;9;9;
77892;PMS5003;67087;50.094;14.338;2023-04-12T15:47:04;14;10;
77892;PMS5003;67087;50.094;14.338;2023-04-12T15:49:29;11;7;
77892;PMS5003;67087;50.094;14.338;2023-04-12T15:51:55;13;12;
77892;PMS5003;67087;50.094;14.338;2023-04-12T15:54:20;14;12;
77892;PMS5003;67087;50.094;14.338;2023-04-12T15:56:46;14;10;
77892;PMS5003;67087;50.094;14.338;2023-04-12T15:59:11;14;12;
77892;PMS5003;67087;50.094;14.338;2023-04-12T16:01:36;15;13;
77892;PMS5003;67087;50.094;14.338;2023-04-12T16:04:02;12;12;
77892;PMS5003;67087;50.094;14.338;2023-04-12T16:06:28;13;13;
77892;PMS5003;67087;50.094;14.338;2023-04-12T16:08:53;14;13;
77892;PMS5003;67087;50.094;14.338;2023-04-12T16:11:20;15;14;
77892;PMS5003;67087;50.094;14.338;2023-04-12T16:13:44;10;10;
77892;PMS5003;67087;50.094;14.338;2023-04-12T16:16:10;10;9;
77892;PMS5003;67087;50.094;14.338;2023-04-12T16:18:35;12;10;
77892;PMS5003;67087;50.094;14.338;2023-04-12T16:21:00;9;9;
77892;PMS5003;67087;50.094;14.338;2023-04-12T16:23:26;11;9;
77892;PMS5003;67087;50.094;14.338;2023-04-12T16:25:50;10;10;
77892;PMS5003;67087;50.094;14.338;2023-04-12T16:28:16;10;9;
77892;PMS5003;67087;50.094;14.338;2023-04-12T16:30:41;10;9;
77892;PMS5003;67087;50.094;14.338;2023-04-12T16:33:07;8;7;
77892;PMS5003;67087;50.094;14.338;2023-04-12T16:35:32;12;11;
77892;PMS5003;67087;50.094;14.338;2023-04-12T16:37:57;9;8;
77892;PMS5003;67087;50.094;14.338;2023-04-12T16:40:23;10;9;
77892;PMS5003;67087;50.094;14.338;2023-04-12T16:42:48;12;11;
77892;PMS5003;67087;50.094;14.338;2023-04-12T16:45:13;9;9;
77892;PMS5003;67087;50.094;14.338;2023-04-12T16:47:38;11;9;
77892;PMS5003;67087;50.094;14.338;2023-04-12T16:50:04;11;9;
77892;PMS5003;67087;50.094;14.338;2023-04-12T16:52:30;8;8;